createdAt,value
2017-02-26T00:01:07.992Z,0
2017-02-26T00:02:22.134Z,0
2017-02-26T00:03:37.466Z,0
2017-02-26T00:04:52.001Z,0
2017-02-26T00:06:06.534Z,0
2017-02-26T00:07:20.567Z,0
2017-02-26T00:08:35.175Z,0
2017-02-26T00:09:49.721Z,0
2017-02-26T00:11:04.300Z,0
2017-02-26T00:12:18.900Z,0
2017-02-26T00:13:33.442Z,0
2017-02-26T00:14:47.761Z,0
2017-02-26T00:16:02.531Z,0
2017-02-26T00:17:16.664Z,0
2017-02-26T00:18:31.126Z,0
2017-02-26T00:19:45.704Z,0
2017-02-26T00:21:00.924Z,0
2017-02-26T00:22:15.532Z,0
2017-02-26T00:23:30.126Z,0
2017-02-26T00:24:44.465Z,0
2017-02-26T00:25:58.639Z,0
2017-02-26T00:27:14.060Z,0
2017-02-26T00:28:28.595Z,0
2017-02-26T00:29:43.609Z,0
2017-02-26T00:30:57.956Z,0
2017-02-26T00:32:12.604Z,0
2017-02-26T00:33:27.326Z,0
2017-02-26T00:34:41.663Z,0
2017-02-26T00:35:56.446Z,0
2017-02-26T00:37:11.333Z,0
2017-02-26T00:38:27.396Z,0
2017-02-26T00:39:41.488Z,0
2017-02-26T00:40:55.732Z,0
2017-02-26T00:42:10.722Z,0
2017-02-26T00:43:24.925Z,0
2017-02-26T00:44:39.062Z,0
2017-02-26T00:45:53.627Z,0
2017-02-26T00:47:07.761Z,0
2017-02-26T00:48:22.332Z,0
2017-02-26T00:49:36.606Z,0
2017-02-26T00:50:50.843Z,0
2017-02-26T00:52:05.502Z,0
2017-02-26T00:53:19.730Z,0
2017-02-26T00:54:34.281Z,0
2017-02-26T00:55:48.355Z,0
2017-02-26T00:57:05.225Z,0
2017-02-26T00:58:20.272Z,0
2017-02-26T00:59:35.133Z,0
2017-02-26T01:00:49.256Z,0
2017-02-26T01:02:03.399Z,0
2017-02-26T01:03:17.573Z,0
2017-02-26T01:04:31.625Z,0
2017-02-26T01:05:46.241Z,0
2017-02-26T01:07:00.406Z,0
2017-02-26T01:08:15.062Z,0
2017-02-26T01:09:29.294Z,0
2017-02-26T01:10:43.919Z,0
2017-02-26T01:11:59.293Z,0
2017-02-26T01:13:14.286Z,0
2017-02-26T01:14:28.833Z,0
2017-02-26T01:15:43.578Z,0
2017-02-26T01:16:58.240Z,0
2017-02-26T01:18:12.412Z,0
2017-02-26T01:19:26.751Z,0
2017-02-26T01:20:41.347Z,0
2017-02-26T01:21:55.703Z,0
2017-02-26T01:23:10.309Z,0
2017-02-26T01:24:24.779Z,0
2017-02-26T01:25:39.375Z,0
2017-02-26T01:26:54.949Z,0
2017-02-26T01:28:09.694Z,0
2017-02-26T01:29:24.274Z,0
2017-02-26T01:30:38.432Z,0
2017-02-26T01:31:54.408Z,0
2017-02-26T01:33:08.550Z,0
2017-02-26T01:34:22.724Z,0
2017-02-26T01:35:37.391Z,0
2017-02-26T01:36:52.401Z,0
2017-02-26T01:38:07.085Z,0
2017-02-26T01:39:22.222Z,0
2017-02-26T01:40:36.481Z,0
2017-02-26T01:41:50.786Z,0
2017-02-26T01:43:05.083Z,0
2017-02-26T01:44:19.183Z,0
2017-02-26T01:45:33.289Z,0
2017-02-26T01:46:47.539Z,0
2017-02-26T01:48:02.421Z,0
2017-02-26T01:49:17.333Z,0
2017-02-26T01:50:31.470Z,0
2017-02-26T01:51:45.589Z,0
2017-02-26T01:53:01.249Z,0
2017-02-26T01:54:16.138Z,0
2017-02-26T01:55:30.504Z,0
2017-02-26T01:56:45.393Z,0
2017-02-26T01:57:59.554Z,0
2017-02-26T02:00:49.549Z,0
2017-02-26T02:02:05.125Z,0
2017-02-26T02:03:19.439Z,0
2017-02-26T02:04:33.577Z,0
2017-02-26T02:05:47.718Z,0
2017-02-26T02:07:02.746Z,0
2017-02-26T02:08:16.981Z,0
2017-02-26T02:09:32.444Z,0
2017-02-26T02:10:46.694Z,0
2017-02-26T02:12:02.104Z,0
2017-02-26T02:13:17.478Z,0
2017-02-26T02:14:32.753Z,0
2017-02-26T02:15:50.758Z,0
2017-02-26T02:17:04.993Z,0
2017-02-26T02:18:19.727Z,0
2017-02-26T02:19:34.420Z,0
2017-02-26T02:20:48.797Z,0
2017-02-26T02:22:03.514Z,0
2017-02-26T02:23:18.064Z,0
2017-02-26T02:24:34.034Z,0
2017-02-26T02:25:48.636Z,0
2017-02-26T02:27:03.292Z,0
2017-02-26T02:28:18.186Z,0
2017-02-26T02:29:32.365Z,0
2017-02-26T02:30:46.634Z,0
2017-02-26T02:32:01.214Z,0
2017-02-26T02:33:15.880Z,0
2017-02-26T02:34:30.872Z,0
2017-02-26T02:35:45.357Z,0
2017-02-26T02:37:01.162Z,0
2017-02-26T02:38:15.833Z,0
2017-02-26T02:39:30.882Z,0
2017-02-26T02:40:45.476Z,0
2017-02-26T02:41:59.544Z,0
2017-02-26T02:43:14.398Z,0
2017-02-26T02:44:28.841Z,0
2017-02-26T02:45:42.979Z,0
2017-02-26T02:46:58.760Z,0
2017-02-26T02:48:13.146Z,0
2017-02-26T02:49:27.254Z,0
2017-02-26T02:50:41.885Z,0
2017-02-26T02:51:56.306Z,0
2017-02-26T02:53:10.550Z,0
2017-02-26T02:54:25.668Z,0
2017-02-26T02:55:39.837Z,0
2017-02-26T02:56:54.643Z,0
2017-02-26T02:58:08.756Z,0
2017-02-26T02:59:23.462Z,0
2017-02-26T03:00:37.775Z,0
2017-02-26T03:01:52.917Z,0
2017-02-26T03:03:07.594Z,0
2017-02-26T03:04:22.525Z,0
2017-02-26T03:05:36.772Z,0
2017-02-26T03:06:50.924Z,0
2017-02-26T03:08:05.066Z,0
2017-02-26T03:09:19.798Z,0
2017-02-26T03:10:34.354Z,0
2017-02-26T03:11:48.849Z,0
2017-02-26T03:13:02.956Z,0
2017-02-26T03:14:18.337Z,0
2017-02-26T03:15:32.861Z,0
2017-02-26T03:16:48.759Z,0
2017-02-26T03:18:04.152Z,0
2017-02-26T03:19:18.547Z,0
2017-02-26T03:20:33.111Z,0
2017-02-26T03:21:47.610Z,0
2017-02-26T03:23:01.765Z,0
2017-02-26T03:24:15.875Z,0
2017-02-26T03:25:29.944Z,0
2017-02-26T03:26:44.202Z,0
2017-02-26T03:27:58.327Z,0
2017-02-26T03:29:12.520Z,0
2017-02-26T03:30:27.195Z,0
2017-02-26T03:31:41.339Z,0
2017-02-26T03:32:58.201Z,0
2017-02-26T03:34:12.888Z,0
2017-02-26T03:35:27.179Z,0
2017-02-26T03:36:41.814Z,0
2017-02-26T03:37:57.660Z,0
2017-02-26T03:39:12.076Z,0
2017-02-26T03:40:26.221Z,0
2017-02-26T03:41:40.822Z,0
2017-02-26T03:42:55.037Z,0
2017-02-26T03:44:10.407Z,0
2017-02-26T03:45:25.476Z,0
2017-02-26T03:46:40.422Z,0
2017-02-26T03:47:54.464Z,0
2017-02-26T03:49:09.087Z,0
2017-02-26T03:50:23.645Z,0
2017-02-26T03:51:37.725Z,0
2017-02-26T03:52:52.363Z,0
2017-02-26T03:54:06.990Z,0
2017-02-26T03:55:21.117Z,0
2017-02-26T03:56:36.199Z,0
2017-02-26T03:57:50.740Z,0
2017-02-26T03:59:05.936Z,0
2017-02-26T04:00:20.625Z,0
2017-02-26T04:01:34.734Z,0
2017-02-26T04:02:48.827Z,0
2017-02-26T04:04:03.791Z,0
2017-02-26T04:05:18.326Z,0
2017-02-26T04:06:32.426Z,0
2017-02-26T04:07:47.292Z,0
2017-02-26T04:09:01.872Z,0
2017-02-26T04:10:16.523Z,0
2017-02-26T04:11:30.752Z,0
2017-02-26T04:12:46.377Z,0
2017-02-26T04:14:01.791Z,0
2017-02-26T04:15:16.397Z,0
2017-02-26T04:16:31.449Z,0
2017-02-26T04:17:45.851Z,0
2017-02-26T04:18:59.934Z,0
2017-02-26T04:20:14.286Z,0
2017-02-26T04:21:29.077Z,0
2017-02-26T04:22:45.285Z,0
2017-02-26T04:24:00.013Z,0
2017-02-26T04:25:14.857Z,0
2017-02-26T04:26:29.404Z,0
2017-02-26T04:27:45.160Z,0
2017-02-26T04:28:59.920Z,0
2017-02-26T04:30:14.818Z,0
2017-02-26T04:31:30.576Z,0
2017-02-26T04:32:45.246Z,0
2017-02-26T04:33:59.955Z,0
2017-02-26T04:35:15.025Z,0
2017-02-26T04:36:30.296Z,0
2017-02-26T04:37:45.465Z,0
2017-02-26T04:39:00.198Z,0
2017-02-26T04:40:14.336Z,0
2017-02-26T04:41:35.174Z,0
2017-02-26T04:42:49.448Z,0
2017-02-26T04:44:04.182Z,0
2017-02-26T04:45:18.454Z,0
2017-02-26T04:46:33.380Z,0
2017-02-26T04:47:47.537Z,0
2017-02-26T04:49:03.249Z,0
2017-02-26T04:50:20.084Z,0
2017-02-26T04:51:35.048Z,0
2017-02-26T04:52:49.071Z,0
2017-02-26T04:54:04.073Z,0
2017-02-26T04:55:18.603Z,0
2017-02-26T04:56:33.115Z,0
2017-02-26T04:57:47.313Z,0
2017-02-26T04:59:01.473Z,0
2017-02-26T05:00:15.576Z,0
2017-02-26T05:01:29.788Z,0
2017-02-26T05:02:44.123Z,0
2017-02-26T05:03:58.142Z,0
2017-02-26T05:05:12.633Z,0
2017-02-26T05:06:27.282Z,0
2017-02-26T05:07:41.355Z,0
2017-02-26T05:08:55.637Z,0
2017-02-26T05:10:09.820Z,0
2017-02-26T05:11:24.255Z,0
2017-02-26T05:12:38.416Z,0
2017-02-26T05:13:52.572Z,0
2017-02-26T05:15:07.093Z,0
2017-02-26T05:16:21.123Z,0
2017-02-26T05:17:35.342Z,0
2017-02-26T05:18:49.472Z,0
2017-02-26T05:20:03.530Z,0
2017-02-26T05:21:17.978Z,0
2017-02-26T05:22:32.261Z,0
2017-02-26T05:23:46.845Z,0
2017-02-26T05:25:00.874Z,0
2017-02-26T05:26:14.899Z,0
2017-02-26T05:27:29.154Z,0
2017-02-26T05:28:43.673Z,0
2017-02-26T05:29:57.835Z,0
2017-02-26T05:31:12.495Z,0
2017-02-26T05:32:27.833Z,0
2017-02-26T05:33:42.001Z,0
2017-02-26T05:34:56.153Z,0
2017-02-26T05:36:10.280Z,0
2017-02-26T05:37:24.352Z,0
2017-02-26T05:38:38.520Z,0
2017-02-26T05:39:52.584Z,0
2017-02-26T05:41:07.640Z,0
2017-02-26T05:42:22.539Z,0
2017-02-26T05:43:37.434Z,0
2017-02-26T05:44:51.500Z,0
2017-02-26T05:46:05.507Z,0
2017-02-26T05:47:20.114Z,0
2017-02-26T05:48:34.593Z,0
2017-02-26T05:49:49.093Z,0
2017-02-26T05:51:03.714Z,0
2017-02-26T05:52:18.157Z,0
2017-02-26T05:53:32.310Z,0
2017-02-26T05:54:46.923Z,0
2017-02-26T05:56:00.980Z,4
2017-02-26T05:57:15.683Z,4
2017-02-26T05:58:29.748Z,0
2017-02-26T05:59:44.731Z,4
2017-02-26T06:01:00.199Z,4
2017-02-26T06:02:14.218Z,4
2017-02-26T06:03:28.731Z,8
2017-02-26T06:04:42.836Z,8
2017-02-26T06:05:56.992Z,12
2017-02-26T06:07:13.400Z,12
2017-02-26T06:08:27.940Z,12
2017-02-26T06:09:42.614Z,16
2017-02-26T06:10:56.732Z,20
2017-02-26T06:12:11.006Z,24
2017-02-26T06:13:25.148Z,24
2017-02-26T06:14:39.429Z,28
2017-02-26T06:15:53.526Z,32
2017-02-26T06:17:07.559Z,36
2017-02-26T06:18:21.557Z,40
2017-02-26T06:19:36.157Z,48
2017-02-26T06:20:50.282Z,60
2017-02-26T06:22:07.015Z,72
2017-02-26T06:23:21.973Z,80
2017-02-26T06:24:36.267Z,92
2017-02-26T06:25:51.351Z,100
2017-02-26T06:27:05.971Z,112
2017-02-26T06:28:20.100Z,120
2017-02-26T06:29:34.691Z,128
2017-02-26T06:30:48.979Z,136
2017-02-26T06:32:03.011Z,140
2017-02-26T06:33:17.643Z,148
2017-02-26T06:34:32.636Z,152
2017-02-26T06:35:46.954Z,168
2017-02-26T06:37:01.388Z,184
2017-02-26T06:38:15.957Z,204
2017-02-26T06:39:31.120Z,228
2017-02-26T06:40:45.347Z,260
2017-02-26T06:41:59.487Z,292
2017-02-26T06:43:15.198Z,324
2017-02-26T06:44:30.619Z,348
2017-02-26T06:45:45.707Z,384
2017-02-26T06:47:00.715Z,412
2017-02-26T06:48:15.352Z,432
2017-02-26T06:49:29.909Z,448
2017-02-26T06:50:44.237Z,460
2017-02-26T06:51:59.091Z,464
2017-02-26T06:53:13.119Z,484
2017-02-26T06:54:28.268Z,512
2017-02-26T06:55:42.413Z,508
2017-02-26T06:56:57.001Z,516
2017-02-26T06:58:11.360Z,548
2017-02-26T06:59:25.882Z,596
2017-02-26T07:00:40.206Z,624
2017-02-26T07:01:54.371Z,640
2017-02-26T07:07:03.879Z,476
2017-02-26T07:08:18.446Z,396
2017-02-26T07:09:33.360Z,420
2017-02-26T07:10:47.367Z,484
2017-02-26T07:12:01.880Z,548
2017-02-26T07:13:16.392Z,560
2017-02-26T07:14:30.546Z,568
2017-02-26T07:15:45.012Z,576
2017-02-26T07:16:59.040Z,576
2017-02-26T07:18:13.509Z,592
2017-02-26T07:19:27.652Z,584
2017-02-26T07:20:42.987Z,576
2017-02-26T07:21:57.586Z,568
2017-02-26T07:23:12.516Z,588
2017-02-26T07:24:26.530Z,632
2017-02-26T07:25:40.586Z,696
2017-02-26T07:26:57.005Z,748
2017-02-26T07:28:11.597Z,780
2017-02-26T07:29:26.587Z,800
2017-02-26T07:30:40.627Z,832
2017-02-26T07:31:56.606Z,864
2017-02-26T07:33:10.752Z,928
2017-02-26T07:34:25.263Z,944
2017-02-26T07:35:39.813Z,932
2017-02-26T07:36:54.019Z,932
2017-02-26T07:38:09.722Z,1016
2017-02-26T07:39:23.828Z,1056
2017-02-26T07:40:38.453Z,1108
2017-02-26T07:41:52.600Z,1168
2017-02-26T07:43:06.948Z,1180
2017-02-26T07:44:21.231Z,1172
2017-02-26T07:45:36.305Z,1152
2017-02-26T07:46:50.413Z,1144
2017-02-26T07:48:06.189Z,1172
2017-02-26T07:49:21.395Z,1172
2017-02-26T07:50:35.486Z,1132
2017-02-26T07:51:50.077Z,1080
2017-02-26T07:53:04.805Z,1052
2017-02-26T07:54:19.913Z,1048
2017-02-26T07:55:34.018Z,1100
2017-02-26T07:56:48.523Z,1184
2017-02-26T07:58:03.507Z,1232
2017-02-26T07:59:18.106Z,1244
2017-02-26T08:00:32.982Z,1240
2017-02-26T08:01:47.666Z,1276
2017-02-26T08:03:03.012Z,1364
2017-02-26T08:04:18.039Z,1476
2017-02-26T08:05:33.265Z,1592
2017-02-26T08:06:49.508Z,1604
2017-02-26T08:08:07.771Z,1612
2017-02-26T08:09:22.103Z,1636
2017-02-26T08:10:37.382Z,1704
2017-02-26T08:11:51.728Z,1764
2017-02-26T08:13:10.751Z,1800
2017-02-26T08:14:24.886Z,1836
2017-02-26T08:15:39.151Z,1900
2017-02-26T08:16:58.709Z,1988
2017-02-26T08:18:13.920Z,2064
2017-02-26T08:19:28.235Z,2156
2017-02-26T08:20:42.733Z,2248
2017-02-26T08:21:57.381Z,2368
2017-02-26T08:23:12.045Z,2540
2017-02-26T08:24:26.735Z,2732
2017-02-26T08:25:41.416Z,2976
2017-02-26T08:26:56.495Z,3060
2017-02-26T08:28:10.631Z,3204
2017-02-26T08:29:24.852Z,3296
2017-02-26T08:30:39.990Z,3288
2017-02-26T08:31:54.178Z,3292
2017-02-26T08:33:08.754Z,3216
2017-02-26T08:34:22.807Z,3132
2017-02-26T08:35:37.047Z,3176
2017-02-26T08:36:51.741Z,3252
2017-02-26T08:38:06.013Z,3296
2017-02-26T08:39:20.564Z,3340
2017-02-26T08:40:35.289Z,3512
2017-02-26T08:41:51.715Z,3760
2017-02-26T08:43:06.404Z,4004
2017-02-26T08:44:23.229Z,4220
2017-02-26T08:45:37.686Z,4320
2017-02-26T08:46:52.158Z,4400
2017-02-26T08:48:06.928Z,4492
2017-02-26T08:49:21.043Z,4584
2017-02-26T08:50:36.477Z,4664
2017-02-26T08:51:50.989Z,4768
2017-02-26T08:53:06.077Z,4912
2017-02-26T08:54:20.665Z,4988
2017-02-26T08:55:34.739Z,4936
2017-02-26T08:56:50.209Z,4804
2017-02-26T08:58:04.738Z,4776
2017-02-26T08:59:19.306Z,4756
2017-02-26T09:00:34.404Z,4744
2017-02-26T09:01:48.903Z,4720
2017-02-26T09:03:04.551Z,4692
2017-02-26T09:04:20.179Z,4348
2017-02-26T09:05:34.875Z,4176
2017-02-26T09:06:52.007Z,4280
2017-02-26T09:08:07.333Z,4544
2017-02-26T09:09:21.843Z,4880
2017-02-26T09:10:36.559Z,5064
2017-02-26T09:11:51.540Z,4920
2017-02-26T09:13:06.775Z,4476
2017-02-26T09:14:21.490Z,3924
2017-02-26T09:15:37.572Z,3344
2017-02-26T09:16:52.144Z,3064
2017-02-26T09:18:07.404Z,3028
2017-02-26T09:19:23.000Z,3088
2017-02-26T09:20:37.255Z,3172
2017-02-26T09:21:51.502Z,3224
2017-02-26T09:23:07.828Z,3256
2017-02-26T09:24:23.296Z,3320
2017-02-26T09:25:37.835Z,3264
2017-02-26T09:26:55.478Z,3116
2017-02-26T09:28:10.258Z,3044
2017-02-26T09:29:26.924Z,2860
2017-02-26T09:30:41.058Z,2756
2017-02-26T09:31:57.348Z,2588
2017-02-26T09:33:12.139Z,2380
2017-02-26T09:34:26.876Z,2188
2017-02-26T09:35:42.042Z,1996
2017-02-26T09:36:56.096Z,1828
2017-02-26T09:38:10.241Z,1784
2017-02-26T09:39:24.778Z,1872
2017-02-26T09:40:39.926Z,2088
2017-02-26T09:41:56.202Z,2336
2017-02-26T09:43:10.308Z,2328
2017-02-26T09:44:24.933Z,2084
2017-02-26T09:45:41.121Z,1840
2017-02-26T09:46:56.855Z,1780
2017-02-26T09:48:10.945Z,1796
2017-02-26T09:49:25.064Z,1860
2017-02-26T09:50:40.358Z,1856
2017-02-26T09:51:55.028Z,1720
2017-02-26T09:53:09.885Z,1640
2017-02-26T09:54:25.286Z,1920
2017-02-26T09:55:39.773Z,2020
2017-02-26T09:56:53.863Z,2052
2017-02-26T09:58:07.999Z,2036
2017-02-26T09:59:22.587Z,2052
2017-02-26T10:00:37.190Z,2036
2017-02-26T10:01:55.489Z,2024
2017-02-26T10:03:09.702Z,2016
2017-02-26T10:04:25.734Z,2008
2017-02-26T10:05:40.292Z,2004
2017-02-26T10:06:55.071Z,1992
2017-02-26T10:08:10.674Z,1984
2017-02-26T10:09:26.329Z,1980
2017-02-26T10:10:41.459Z,1968
2017-02-26T10:11:57.106Z,1964
2017-02-26T10:13:11.306Z,1976
2017-02-26T10:14:25.544Z,1984
2017-02-26T10:15:39.735Z,1980
2017-02-26T10:16:53.890Z,2008
2017-02-26T10:18:08.476Z,1876
2017-02-26T10:19:23.329Z,2056
2017-02-26T10:20:37.491Z,2068
2017-02-26T10:21:52.475Z,2048
2017-02-26T10:23:07.766Z,2060
2017-02-26T10:24:22.616Z,2104
2017-02-26T10:25:37.724Z,2092
2017-02-26T10:26:52.049Z,2048
2017-02-26T10:28:07.506Z,1792
2017-02-26T10:29:21.711Z,2076
2017-02-26T10:30:36.120Z,2048
2017-02-26T10:31:50.359Z,2028
2017-02-26T10:33:05.686Z,2032
2017-02-26T10:34:20.240Z,2112
2017-02-26T10:35:35.379Z,2268
2017-02-26T10:36:49.503Z,2220
2017-02-26T10:38:05.028Z,2144
2017-02-26T10:39:20.355Z,2268
2017-02-26T10:40:35.773Z,2240
2017-02-26T10:41:51.016Z,2088
2017-02-26T10:43:07.552Z,2048
2017-02-26T10:44:25.372Z,1932
2017-02-26T10:45:42.299Z,1844
2017-02-26T10:47:00.443Z,1976
2017-02-26T10:48:19.364Z,1948
2017-02-26T10:49:37.442Z,1944
2017-02-26T10:50:58.135Z,1952
2017-02-26T10:52:17.179Z,1968
2017-02-26T10:53:34.362Z,1960
2017-02-26T10:54:51.063Z,1944
2017-02-26T10:56:07.572Z,1976
2017-02-26T10:57:26.219Z,1968
2017-02-26T10:58:42.709Z,1980
2017-02-26T11:00:00.010Z,1984
2017-02-26T11:01:17.076Z,1956
2017-02-26T11:02:35.947Z,1904
2017-02-26T11:03:52.933Z,1904
2017-02-26T11:05:11.318Z,1900
2017-02-26T11:06:29.760Z,1904
2017-02-26T11:08:01.419Z,1892
2017-02-26T11:09:25.142Z,1904
2017-02-26T11:10:50.688Z,1904
2017-02-26T11:12:16.001Z,1900
2017-02-26T11:13:42.929Z,1896
2017-02-26T11:15:07.736Z,1884
2017-02-26T11:16:26.248Z,1880
2017-02-26T11:17:48.216Z,1800
2017-02-26T11:19:12.713Z,1864
2017-02-26T11:20:38.824Z,1860
2017-02-26T11:22:08.910Z,1872
2017-02-26T11:23:33.795Z,1904
2017-02-26T11:24:59.319Z,1980
2017-02-26T11:26:24.697Z,2116
2017-02-26T11:27:48.678Z,2160
2017-02-26T11:29:14.300Z,2328
2017-02-26T11:30:39.088Z,2980
2017-02-26T11:32:05.349Z,2868
2017-02-26T11:33:27.991Z,2608
2017-02-26T11:34:53.251Z,2468
2017-02-26T11:36:18.593Z,2544
2017-02-26T11:37:41.423Z,2532
2017-02-26T11:39:07.859Z,2604
2017-02-26T11:40:33.924Z,2064
2017-02-26T11:41:57.794Z,1928
2017-02-26T11:43:16.787Z,1828
2017-02-26T11:44:41.506Z,1976
2017-02-26T11:46:03.933Z,2268
2017-02-26T11:47:29.221Z,2212
2017-02-26T11:48:53.283Z,2384
2017-02-26T11:50:20.033Z,2552
2017-02-26T11:51:46.625Z,2496
2017-02-26T11:53:10.445Z,2440
2017-02-26T11:54:32.671Z,2288
2017-02-26T11:55:59.036Z,2408
2017-02-26T11:57:24.831Z,2704
2017-02-26T11:58:51.282Z,2812
2017-02-26T12:00:21.227Z,2824
2017-02-26T12:01:47.605Z,2744
2017-02-26T12:03:13.459Z,2588
2017-02-26T12:04:39.926Z,2360
2017-02-26T12:06:05.034Z,2188
2017-02-26T12:07:29.189Z,2080
2017-02-26T12:08:54.090Z,1964
2017-02-26T12:10:20.397Z,1868
2017-02-26T12:11:48.681Z,1812
2017-02-26T12:13:15.825Z,1788
2017-02-26T12:14:45.072Z,1768
2017-02-26T12:16:08.399Z,1764
2017-02-26T12:17:30.595Z,1756
2017-02-26T12:18:53.667Z,1756
2017-02-26T12:20:18.738Z,1756
2017-02-26T12:21:41.314Z,1744
2017-02-26T12:23:01.830Z,1744
2017-02-26T12:24:22.181Z,1748
2017-02-26T12:25:47.346Z,1748
2017-02-26T12:27:11.847Z,1748
2017-02-26T12:28:36.835Z,1756
2017-02-26T12:30:03.806Z,1756
2017-02-26T12:31:27.026Z,1756
2017-02-26T12:32:50.802Z,1752
2017-02-26T12:34:12.890Z,1764
2017-02-26T12:35:31.282Z,1772
2017-02-26T12:36:50.185Z,1768
2017-02-26T12:38:09.069Z,1772
2017-02-26T12:39:27.347Z,1772
2017-02-26T12:40:46.604Z,1780
2017-02-26T12:42:04.960Z,1784
2017-02-26T12:43:26.734Z,1784
2017-02-26T12:44:46.249Z,1796
2017-02-26T12:46:05.752Z,1820
2017-02-26T12:47:28.112Z,1840
2017-02-26T12:48:57.861Z,1860
2017-02-26T12:50:17.709Z,1888
2017-02-26T12:51:37.397Z,1932
2017-02-26T12:52:56.818Z,1800
2017-02-26T12:54:14.608Z,2020
2017-02-26T12:55:36.977Z,2140
2017-02-26T12:56:58.209Z,2272
2017-02-26T12:58:21.046Z,2324
2017-02-26T12:59:41.589Z,2140
2017-02-26T13:01:05.801Z,1988
2017-02-26T13:02:34.318Z,1948
2017-02-26T13:03:56.292Z,1952
2017-02-26T13:05:20.727Z,2020
2017-02-26T13:06:49.234Z,2076
2017-02-26T13:08:11.009Z,2108
2017-02-26T13:09:34.045Z,2032
2017-02-26T13:10:53.439Z,1996
2017-02-26T13:12:28.321Z,1992
2017-02-26T13:13:48.685Z,1960
2017-02-26T13:15:10.248Z,1940
2017-02-26T13:16:35.814Z,1956
2017-02-26T13:18:00.786Z,1984
2017-02-26T13:19:26.389Z,2004
2017-02-26T13:20:52.523Z,2048
2017-02-26T13:22:13.166Z,2064
2017-02-26T13:23:34.682Z,2036
2017-02-26T13:24:57.922Z,1952
2017-02-26T13:26:22.822Z,1940
2017-02-26T13:27:46.528Z,1940
2017-02-26T13:29:10.484Z,1940
2017-02-26T13:30:33.791Z,1916
2017-02-26T13:31:57.919Z,1888
2017-02-26T13:33:20.505Z,1860
2017-02-26T13:34:39.144Z,1880
2017-02-26T13:35:56.705Z,1900
2017-02-26T13:37:15.166Z,1868
2017-02-26T13:38:30.075Z,1892
2017-02-26T13:39:45.166Z,1900
2017-02-26T13:41:00.325Z,1900
2017-02-26T13:42:14.442Z,1904
2017-02-26T13:43:30.651Z,1904
2017-02-26T13:44:46.796Z,1892
2017-02-26T13:46:02.535Z,1884
2017-02-26T13:47:18.891Z,1900
2017-02-26T13:48:35.228Z,1908
2017-02-26T13:49:50.459Z,1904
2017-02-26T13:51:05.135Z,1892
2017-02-26T13:52:20.474Z,1892
2017-02-26T13:53:35.445Z,1896
2017-02-26T13:54:50.550Z,1884
2017-02-26T13:56:05.216Z,1876
2017-02-26T13:57:19.428Z,1876
2017-02-26T13:58:33.646Z,1864
2017-02-26T13:59:48.118Z,1856
2017-02-26T14:01:03.479Z,1844
2017-02-26T14:02:18.530Z,1844
2017-02-26T14:03:33.073Z,1840
2017-02-26T14:04:48.119Z,1840
2017-02-26T14:06:03.506Z,1836
2017-02-26T14:07:17.994Z,1832
2017-02-26T14:08:32.071Z,1828
2017-02-26T14:09:46.635Z,1828
2017-02-26T14:11:03.403Z,1828
2017-02-26T14:12:19.377Z,1832
2017-02-26T14:13:34.835Z,1840
2017-02-26T14:14:49.776Z,1848
2017-02-26T14:16:08.123Z,1852
2017-02-26T14:17:25.686Z,1864
2017-02-26T14:18:40.579Z,1896
2017-02-26T14:19:55.265Z,1916
2017-02-26T14:21:09.499Z,1920
2017-02-26T14:22:24.859Z,1956
2017-02-26T14:23:40.448Z,1972
2017-02-26T14:24:55.047Z,1952
2017-02-26T14:26:09.577Z,1932
2017-02-26T14:27:24.379Z,1928
2017-02-26T14:28:38.478Z,1904
2017-02-26T14:29:52.710Z,1872
2017-02-26T14:31:07.382Z,1836
2017-02-26T14:32:22.693Z,1824
2017-02-26T14:33:38.414Z,1840
2017-02-26T14:34:53.258Z,1852
2017-02-26T14:36:07.982Z,1852
2017-02-26T14:37:22.219Z,1832
2017-02-26T14:38:36.684Z,1828
2017-02-26T14:39:51.717Z,1836
2017-02-26T14:41:06.649Z,1852
2017-02-26T14:42:22.140Z,1888
2017-02-26T14:43:38.923Z,1940
2017-02-26T14:44:53.573Z,1904
2017-02-26T14:46:08.729Z,1892
2017-02-26T14:47:24.501Z,1944
2017-02-26T14:48:39.993Z,2040
2017-02-26T14:49:57.444Z,1960
2017-02-26T14:51:12.853Z,1852
2017-02-26T14:52:27.729Z,1840
2017-02-26T14:53:44.233Z,1920
2017-02-26T14:55:02.306Z,1992
2017-02-26T14:56:18.396Z,2028
2017-02-26T14:57:33.578Z,2012
2017-02-26T14:58:48.267Z,1964
2017-02-26T15:00:04.784Z,1940
2017-02-26T15:01:20.746Z,1904
2017-02-26T15:02:36.657Z,1844
2017-02-26T15:03:53.617Z,1744
2017-02-26T15:05:08.693Z,1732
2017-02-26T15:06:26.048Z,1732
2017-02-26T15:07:42.461Z,1756
2017-02-26T15:08:56.731Z,1692
2017-02-26T15:10:12.006Z,1668
2017-02-26T15:11:28.419Z,1684
2017-02-26T15:12:45.089Z,1632
2017-02-26T15:14:01.851Z,1660
2017-02-26T15:15:16.423Z,1692
2017-02-26T15:16:31.243Z,1708
2017-02-26T15:17:46.071Z,1640
2017-02-26T15:19:01.168Z,1652
2017-02-26T15:20:15.510Z,1684
2017-02-26T15:21:31.221Z,1652
2017-02-26T15:22:46.419Z,1652
2017-02-26T15:24:00.653Z,1628
2017-02-26T15:25:15.893Z,1564
2017-02-26T15:26:31.587Z,1584
2017-02-26T15:27:46.284Z,1580
2017-02-26T15:29:04.126Z,1596
2017-02-26T15:30:19.237Z,1708
2017-02-26T15:31:34.408Z,1756
2017-02-26T15:32:48.759Z,1580
2017-02-26T15:34:03.987Z,1536
2017-02-26T15:35:18.988Z,1568
2017-02-26T15:36:33.558Z,1676
2017-02-26T15:37:48.155Z,1544
2017-02-26T15:39:04.243Z,1492
2017-02-26T15:40:18.484Z,1428
2017-02-26T15:41:35.015Z,1444
2017-02-26T15:42:51.010Z,1452
2017-02-26T15:44:08.065Z,1388
2017-02-26T15:45:23.997Z,1420
2017-02-26T15:46:40.385Z,1400
2017-02-26T15:49:40.373Z,1284
2017-02-26T15:50:55.614Z,1248
2017-02-26T15:52:11.324Z,1232
2017-02-26T15:55:24.848Z,1220
2017-02-26T15:56:40.311Z,1224
2017-02-26T15:57:55.317Z,1208
2017-02-26T15:59:10.390Z,1184
2017-02-26T16:00:24.492Z,1196
2017-02-26T16:01:38.779Z,1228
2017-02-26T16:02:53.462Z,1260
2017-02-26T16:04:07.837Z,1252
2017-02-26T16:05:22.042Z,1236
2017-02-26T16:06:37.135Z,1244
2017-02-26T16:07:51.353Z,1204
2017-02-26T16:09:06.463Z,1148
2017-02-26T16:10:22.431Z,1084
2017-02-26T16:11:37.629Z,1032
2017-02-26T16:12:52.342Z,988
2017-02-26T16:14:08.194Z,916
2017-02-26T16:15:24.608Z,860
2017-02-26T16:16:38.776Z,816
2017-02-26T16:17:53.544Z,764
2017-02-26T16:19:09.418Z,728
2017-02-26T16:20:25.236Z,696
2017-02-26T16:21:40.865Z,676
2017-02-26T16:22:55.095Z,672
2017-02-26T16:24:09.230Z,652
2017-02-26T16:25:23.973Z,628
2017-02-26T16:26:38.815Z,600
2017-02-26T16:27:53.405Z,544
2017-02-26T16:29:07.595Z,512
2017-02-26T16:30:23.415Z,480
2017-02-26T16:31:39.145Z,444
2017-02-26T16:32:54.336Z,412
2017-02-26T16:34:08.828Z,392
2017-02-26T16:35:22.995Z,372
2017-02-26T16:36:37.298Z,352
2017-02-26T16:37:52.364Z,324
2017-02-26T16:39:07.411Z,308
2017-02-26T16:40:21.520Z,292
2017-02-26T16:41:36.245Z,284
2017-02-26T16:42:50.964Z,272
2017-02-26T16:44:05.758Z,268
2017-02-26T16:45:20.997Z,256
2017-02-26T16:46:35.586Z,244
2017-02-26T16:47:53.066Z,228
2017-02-26T16:49:07.698Z,212
2017-02-26T16:50:22.006Z,200
2017-02-26T16:51:36.421Z,180
2017-02-26T16:52:51.561Z,172
2017-02-26T16:54:06.516Z,156
2017-02-26T16:55:21.075Z,140
2017-02-26T16:56:36.405Z,124
2017-02-26T16:57:51.421Z,112
2017-02-26T16:59:08.141Z,100
2017-02-26T17:00:23.941Z,80
2017-02-26T17:01:38.479Z,68
2017-02-26T17:02:53.245Z,60
2017-02-26T17:04:08.782Z,48
2017-02-26T17:05:23.813Z,40
2017-02-26T17:06:39.296Z,36
2017-02-26T17:07:53.778Z,32
2017-02-26T17:09:08.590Z,28
2017-02-26T17:10:24.000Z,20
2017-02-26T17:11:40.056Z,20
2017-02-26T17:12:56.271Z,16
2017-02-26T17:14:11.134Z,12
2017-02-26T17:15:25.306Z,8
2017-02-26T17:16:40.149Z,8
2017-02-26T17:17:55.384Z,8
2017-02-26T17:19:11.363Z,4
2017-02-26T17:20:26.157Z,4
2017-02-26T17:21:41.231Z,0
2017-02-26T17:22:58.063Z,4
2017-02-26T17:24:13.374Z,0
2017-02-26T17:25:28.441Z,4
2017-02-26T17:26:43.505Z,0
2017-02-26T17:27:59.420Z,0
2017-02-26T17:29:15.137Z,0
2017-02-26T17:30:31.424Z,0
2017-02-26T17:31:46.578Z,0
2017-02-26T17:33:01.679Z,0
2017-02-26T17:34:16.473Z,0
2017-02-26T17:35:31.554Z,0
2017-02-26T17:40:57.575Z,0
2017-02-26T17:42:15.047Z,0
2017-02-26T17:43:30.184Z,0
2017-02-26T17:44:47.895Z,0
2017-02-26T17:46:41.091Z,0
2017-02-26T17:47:57.331Z,0
2017-02-26T17:49:12.842Z,0
2017-02-26T17:50:28.085Z,0
2017-02-26T17:51:43.609Z,0
2017-02-26T17:52:59.898Z,0
2017-02-26T17:54:16.416Z,0